createdAt,value
2018-06-12T00:02:11.885Z,3.40
2018-06-12T00:04:41.043Z,4.10
2018-06-12T00:07:10.241Z,3.70
2018-06-12T00:09:39.394Z,3.10
2018-06-12T00:12:08.533Z,3.40
2018-06-12T00:14:37.698Z,3.03
2018-06-12T00:17:06.805Z,3.30
2018-06-12T00:19:35.952Z,2.90
2018-06-12T00:22:05.092Z,3.43
2018-06-12T00:24:34.293Z,3.60
2018-06-12T00:27:03.470Z,4.33
2018-06-12T00:29:32.600Z,3.67
2018-06-12T00:32:01.747Z,3.77
2018-06-12T00:34:30.874Z,3.90
2018-06-12T00:37:00.157Z,3.67
2018-06-12T00:39:29.460Z,3.90
2018-06-12T00:41:58.735Z,4.37
2018-06-12T00:44:27.852Z,4.00
2018-06-12T00:46:56.977Z,4.33
2018-06-12T00:49:26.134Z,4.17
2018-06-12T00:51:55.307Z,4.17
2018-06-12T00:54:24.665Z,4.50
2018-06-12T00:57:08.948Z,5.23
2018-06-12T00:59:38.161Z,4.63
2018-06-12T01:02:07.244Z,5.07
2018-06-12T01:04:36.586Z,5.13
2018-06-12T01:07:05.814Z,5.10
2018-06-12T01:09:34.908Z,4.87
2018-06-12T01:12:04.417Z,5.43
2018-06-12T01:14:33.743Z,4.77
2018-06-12T01:17:02.963Z,5.37
2018-06-12T01:19:32.160Z,5.17
2018-06-12T01:22:01.394Z,5.53
2018-06-12T01:24:30.591Z,5.50
2018-06-12T01:26:59.702Z,5.97
2018-06-12T01:29:28.902Z,5.63
2018-06-12T01:31:58.070Z,5.83
2018-06-12T01:34:27.301Z,5.57
2018-06-12T01:36:56.481Z,5.70
2018-06-12T01:39:25.657Z,5.83
2018-06-12T01:41:54.769Z,5.07
2018-06-12T01:44:23.928Z,5.40
2018-06-12T01:46:53.060Z,5.80
2018-06-12T01:49:22.179Z,5.10
2018-06-12T01:51:51.345Z,5.10
2018-06-12T01:54:20.461Z,5.30
2018-06-12T01:56:49.568Z,5.27
2018-06-12T01:59:18.712Z,5.07
2018-06-12T02:01:47.829Z,5.63
2018-06-12T02:04:16.950Z,7.00
2018-06-12T02:06:46.121Z,6.73
2018-06-12T02:09:15.252Z,6.20
2018-06-12T02:11:44.489Z,7.03
2018-06-12T02:14:13.608Z,7.23
2018-06-12T02:16:42.747Z,6.27
2018-06-12T02:19:11.870Z,7.03
2018-06-12T02:21:40.990Z,6.87
2018-06-12T02:24:10.097Z,7.70
2018-06-12T02:26:38.900Z,7.90
2018-06-12T02:29:07.921Z,7.03
2018-06-12T02:31:43.366Z,7.77
2018-06-12T02:34:12.466Z,7.27
2018-06-12T02:36:41.580Z,7.97
2018-06-12T02:39:10.799Z,8.47
2018-06-12T02:41:39.896Z,7.83
2018-06-12T02:44:09.041Z,8.20
2018-06-12T02:46:38.168Z,8.03
2018-06-12T02:49:07.312Z,9.37
2018-06-12T02:51:37.554Z,10.00
2018-06-12T02:54:06.707Z,10.00
2018-06-12T02:56:35.862Z,10.00
2018-06-12T02:59:04.996Z,10.20
2018-06-12T03:01:34.105Z,9.77
2018-06-12T03:04:03.230Z,10.73
2018-06-12T03:06:32.363Z,10.77
2018-06-12T03:09:01.510Z,11.13
2018-06-12T03:11:30.725Z,10.30
2018-06-12T03:13:59.829Z,10.90
2018-06-12T03:16:29.029Z,11.67
2018-06-12T03:18:58.167Z,11.70
2018-06-12T03:21:27.347Z,11.00
2018-06-12T03:23:56.449Z,10.83
2018-06-12T03:26:25.558Z,11.87
2018-06-12T03:28:54.357Z,11.43
2018-06-12T03:31:23.361Z,13.13
2018-06-12T03:33:52.549Z,12.27
2018-06-12T03:36:21.700Z,11.20
2018-06-12T03:38:50.836Z,11.87
2018-06-12T03:41:19.977Z,10.70
2018-06-12T03:43:49.079Z,10.17
2018-06-12T03:46:18.379Z,10.87
2018-06-12T03:48:54.041Z,10.37
2018-06-12T03:51:23.163Z,9.73
2018-06-12T03:53:52.282Z,9.47
2018-06-12T03:56:21.417Z,10.40
2018-06-12T03:58:50.563Z,10.50
2018-06-12T04:01:19.740Z,9.90
2018-06-12T04:03:48.936Z,9.80
2018-06-12T04:06:18.078Z,9.90
2018-06-12T04:08:47.230Z,8.97
2018-06-12T04:11:16.365Z,8.93
2018-06-12T04:13:45.516Z,8.60
2018-06-12T04:16:14.664Z,8.90
2018-06-12T04:18:43.986Z,8.77
2018-06-12T04:21:13.230Z,10.07
2018-06-12T04:23:42.371Z,9.53
2018-06-12T04:26:11.753Z,10.70
2018-06-12T04:28:40.875Z,11.53
2018-06-12T04:31:10.027Z,11.03
2018-06-12T04:33:39.199Z,10.57
2018-06-12T04:36:08.407Z,9.27
2018-06-12T04:38:37.679Z,9.67
2018-06-12T04:41:07.347Z,11.00
2018-06-12T04:43:37.030Z,10.53
2018-06-12T04:46:06.225Z,9.30
2018-06-12T04:48:35.412Z,10.07
2018-06-12T04:51:04.566Z,9.67
2018-06-12T04:53:33.853Z,12.07
2018-06-12T04:56:02.969Z,13.97
2018-06-12T04:58:32.165Z,13.70
2018-06-12T05:01:01.286Z,13.90
2018-06-12T05:03:30.508Z,13.73
2018-06-12T05:05:59.632Z,13.83
2018-06-12T05:08:28.468Z,12.93
2018-06-12T05:10:57.565Z,12.63
2018-06-12T05:13:26.707Z,11.07
2018-06-12T05:15:55.821Z,11.80
2018-06-12T05:18:24.952Z,12.47
2018-06-12T05:20:54.095Z,13.20
2018-06-12T05:23:23.263Z,12.60
2018-06-12T05:25:52.429Z,12.77
2018-06-12T05:28:21.566Z,12.37
2018-06-12T05:30:50.692Z,12.27
2018-06-12T05:33:19.801Z,12.57
2018-06-12T05:35:48.990Z,12.40
2018-06-12T05:38:18.120Z,13.07
2018-06-12T05:40:47.302Z,13.17
2018-06-12T05:43:16.463Z,12.77
2018-06-12T05:45:45.593Z,13.13
2018-06-12T05:48:14.750Z,14.03
2018-06-12T05:50:44.903Z,13.77
2018-06-12T05:53:14.008Z,16.23
2018-06-12T05:55:43.243Z,16.37
2018-06-12T05:58:12.308Z,14.63
2018-06-12T06:00:41.556Z,14.10
2018-06-12T06:03:10.707Z,15.30
2018-06-12T06:05:39.890Z,14.30
2018-06-12T06:08:09.000Z,12.77
2018-06-12T06:10:38.273Z,13.20
2018-06-12T06:13:07.438Z,19.37
2018-06-12T06:15:36.842Z,13.63
2018-06-12T06:18:06.048Z,13.10
2018-06-12T06:20:35.289Z,12.93
2018-06-12T06:23:04.546Z,13.43
2018-06-12T06:25:33.542Z,14.70
2018-06-12T06:28:02.707Z,14.30
2018-06-12T06:30:31.861Z,14.77
2018-06-12T06:33:02.832Z,15.80
2018-06-12T06:35:33.613Z,16.00
2018-06-12T06:38:02.765Z,15.57
2018-06-12T06:40:32.070Z,14.63
2018-06-12T06:43:01.474Z,20.47
2018-06-12T06:45:30.563Z,16.67
2018-06-12T06:47:59.789Z,13.70
2018-06-12T06:50:28.987Z,14.47
2018-06-12T06:52:58.146Z,13.60
2018-06-12T06:55:27.280Z,14.03
2018-06-12T06:57:56.517Z,23.23
2018-06-12T07:00:25.779Z,16.20
2018-06-12T07:02:55.257Z,15.07
2018-06-12T07:05:25.174Z,12.37
2018-06-12T07:07:54.325Z,12.27
2018-06-12T07:10:23.550Z,12.20
2018-06-12T07:12:53.302Z,10.37
2018-06-12T07:15:22.457Z,9.83
2018-06-12T07:17:51.586Z,9.70
2018-06-12T07:20:30.818Z,13.17
2018-06-12T07:22:59.939Z,11.00
2018-06-12T07:25:29.075Z,11.33
2018-06-12T07:27:58.217Z,10.10
2018-06-12T07:30:27.374Z,10.17
2018-06-12T07:32:56.541Z,9.83
2018-06-12T07:35:25.810Z,10.17
2018-06-12T07:37:55.026Z,9.97
2018-06-12T07:40:24.162Z,9.53
2018-06-12T07:42:53.341Z,10.30
2018-06-12T07:45:22.489Z,10.60
2018-06-12T07:47:51.651Z,11.33
2018-06-12T07:50:20.853Z,10.20
2018-06-12T07:52:50.015Z,10.43
2018-06-12T07:55:19.190Z,10.60
2018-06-12T07:57:48.365Z,10.90
2018-06-12T08:00:17.619Z,9.97
2018-06-12T08:02:46.746Z,10.83
2018-06-12T08:05:15.853Z,12.00
2018-06-12T08:07:44.978Z,9.90
2018-06-12T08:10:14.157Z,10.10
2018-06-12T08:12:43.663Z,11.10
2018-06-12T08:15:12.789Z,10.93
2018-06-12T08:17:41.947Z,10.40
2018-06-12T08:20:11.084Z,10.73
2018-06-12T08:22:40.241Z,9.50
2018-06-12T08:25:09.445Z,10.63
2018-06-12T08:27:38.597Z,9.87
2018-06-12T08:30:07.798Z,9.00
2018-06-12T08:32:36.886Z,9.57
2018-06-12T08:35:05.843Z,10.37
2018-06-12T08:37:34.857Z,9.87
2018-06-12T08:40:04.213Z,9.10
2018-06-12T08:42:33.358Z,9.10
2018-06-12T08:45:02.469Z,11.87
2018-06-12T08:47:31.618Z,9.37
2018-06-12T08:50:00.838Z,9.70
2018-06-12T08:52:29.951Z,10.77
2018-06-12T08:54:59.098Z,10.00
2018-06-12T08:57:28.268Z,9.60
2018-06-12T08:59:57.414Z,10.30
2018-06-12T09:02:26.542Z,9.10
2018-06-12T09:04:55.685Z,8.40
2018-06-12T09:07:24.794Z,7.90
2018-06-12T09:09:54.022Z,10.27
2018-06-12T09:12:23.188Z,9.00
2018-06-12T09:14:52.600Z,8.17
2018-06-12T09:17:21.937Z,8.00
2018-06-12T09:19:51.120Z,8.77
2018-06-12T09:22:20.294Z,8.97
2018-06-12T09:24:49.409Z,8.10
2018-06-12T09:27:18.542Z,7.57
2018-06-12T09:29:47.889Z,7.57
2018-06-12T09:32:16.989Z,7.47
2018-06-12T09:34:46.196Z,8.17
2018-06-12T09:37:15.385Z,7.53
2018-06-12T09:39:44.566Z,7.77
2018-06-12T09:42:13.767Z,8.37
2018-06-12T09:44:42.852Z,7.63
2018-06-12T09:47:12.067Z,8.60
2018-06-12T09:49:41.340Z,7.37
2018-06-12T09:52:10.463Z,7.07
2018-06-12T09:54:39.648Z,7.43
2018-06-12T09:57:08.839Z,6.87
2018-06-12T09:59:38.108Z,7.57
2018-06-12T10:02:07.258Z,7.27
2018-06-12T10:04:36.407Z,8.10
2018-06-12T10:07:05.565Z,6.73
2018-06-12T10:09:34.657Z,6.23
2018-06-12T10:12:03.836Z,5.60
2018-06-12T10:14:33.006Z,5.10
2018-06-12T10:17:02.235Z,5.67
2018-06-12T10:19:31.497Z,5.73
2018-06-12T10:22:00.656Z,6.30
2018-06-12T10:24:29.816Z,5.40
2018-06-12T10:26:59.006Z,5.30
2018-06-12T10:29:28.236Z,5.33
2018-06-12T10:31:57.389Z,8.10
2018-06-12T10:34:26.510Z,5.10
2018-06-12T10:36:55.628Z,4.40
2018-06-12T10:39:24.785Z,4.40
2018-06-12T10:41:53.902Z,5.07
2018-06-12T10:44:23.090Z,4.47
2018-06-12T10:46:52.206Z,4.20
2018-06-12T10:49:21.366Z,4.60
2018-06-12T10:51:50.557Z,4.60
2018-06-12T10:54:19.718Z,4.87
2018-06-12T10:56:48.953Z,5.40
2018-06-12T10:59:18.091Z,4.83
2018-06-12T11:01:47.252Z,5.00
2018-06-12T11:04:16.403Z,5.10
2018-06-12T11:06:45.584Z,5.30
2018-06-12T11:09:14.673Z,5.50
2018-06-12T11:11:43.825Z,6.03
2018-06-12T11:14:13.012Z,6.07
2018-06-12T11:16:42.141Z,5.43
2018-06-12T11:19:11.269Z,5.80
2018-06-12T11:21:40.383Z,5.77
2018-06-12T11:24:09.525Z,4.40
2018-06-12T11:26:38.679Z,4.27
2018-06-12T11:29:07.765Z,5.40
2018-06-12T11:31:36.891Z,5.37
2018-06-12T11:34:05.717Z,5.37
2018-06-12T11:36:34.710Z,5.80
2018-06-12T11:39:05.394Z,6.30
2018-06-12T11:41:34.281Z,6.23
2018-06-12T11:44:03.643Z,6.83
2018-06-12T11:46:32.875Z,6.80
2018-06-12T11:49:02.336Z,6.13
2018-06-12T11:51:31.533Z,5.60
2018-06-12T11:54:00.679Z,6.73
2018-06-12T11:56:29.833Z,6.00
2018-06-12T11:58:59.090Z,7.00
2018-06-12T12:01:28.296Z,7.07
2018-06-12T12:03:57.424Z,6.70
2018-06-12T12:06:26.601Z,6.27
2018-06-12T12:08:55.763Z,7.83
2018-06-12T12:11:24.937Z,7.93
2018-06-12T12:13:54.101Z,7.27
2018-06-12T12:16:23.219Z,8.70
2018-06-12T12:18:52.351Z,10.00
2018-06-12T12:21:21.527Z,11.30
2018-06-12T12:23:50.678Z,12.67
2018-06-12T12:26:19.885Z,13.43
2018-06-12T12:28:49.132Z,14.10
2018-06-12T12:31:18.360Z,15.70
2018-06-12T12:33:47.528Z,15.73
2018-06-12T12:36:16.747Z,15.37
2018-06-12T12:38:45.877Z,15.27
2018-06-12T12:41:15.021Z,16.17
2018-06-12T12:43:44.215Z,18.43
2018-06-12T12:46:13.460Z,16.00
2018-06-12T12:48:42.581Z,13.30
2018-06-12T12:51:11.698Z,13.53
2018-06-12T12:53:40.861Z,12.83
2018-06-12T12:56:09.999Z,11.67
2018-06-12T12:58:39.145Z,12.07
2018-06-12T13:01:08.502Z,16.40
2018-06-12T13:03:37.703Z,13.37
2018-06-12T13:06:06.836Z,12.80
2018-06-12T13:08:36.042Z,12.00
2018-06-12T13:11:05.189Z,12.13
2018-06-12T13:13:34.333Z,13.63
2018-06-12T13:16:03.474Z,13.33
2018-06-12T13:18:32.656Z,14.27
2018-06-12T13:21:01.856Z,13.67
2018-06-12T13:23:31.006Z,13.37
2018-06-12T13:26:00.156Z,13.83
2018-06-12T13:28:29.313Z,13.83
2018-06-12T13:30:58.464Z,13.30
2018-06-12T13:33:27.660Z,14.03
2018-06-12T13:35:56.781Z,15.10
2018-06-12T13:38:25.978Z,14.33
2018-06-12T13:40:55.073Z,15.23
2018-06-12T13:43:24.193Z,13.10
2018-06-12T13:45:53.414Z,13.70
2018-06-12T13:48:22.555Z,11.27
2018-06-12T13:50:51.709Z,11.10
2018-06-12T13:53:20.842Z,11.00
2018-06-12T13:55:50.007Z,11.40
2018-06-12T13:58:19.219Z,11.50
2018-06-12T14:00:48.337Z,10.90
2018-06-12T14:03:17.534Z,10.33
2018-06-12T14:05:46.436Z,11.93
2018-06-12T14:08:15.556Z,12.20
2018-06-12T14:10:44.732Z,14.33
2018-06-12T14:13:14.049Z,14.33
2018-06-12T14:15:43.214Z,15.07
2018-06-12T14:18:12.434Z,15.00
2018-06-12T14:20:41.616Z,15.57
2018-06-12T14:23:10.742Z,15.27
2018-06-12T14:25:39.991Z,16.53
2018-06-12T14:28:09.127Z,15.70
2018-06-12T14:30:38.232Z,15.53
2018-06-12T14:33:07.393Z,16.03
2018-06-12T14:35:36.625Z,16.97
2018-06-12T14:38:05.781Z,15.10
2018-06-12T14:40:35.042Z,16.23
2018-06-12T14:43:04.183Z,14.93
2018-06-12T14:45:33.329Z,16.00
2018-06-12T14:48:02.513Z,15.67
2018-06-12T14:50:31.982Z,14.83
2018-06-12T14:53:01.241Z,15.50
2018-06-12T14:55:30.438Z,16.63
2018-06-12T14:57:59.593Z,16.70
2018-06-12T15:00:28.814Z,16.40
2018-06-12T15:02:58.042Z,16.07
2018-06-12T15:05:27.256Z,16.20
2018-06-12T15:07:56.471Z,15.13
2018-06-12T15:10:25.553Z,15.43
2018-06-12T15:12:54.771Z,15.77
2018-06-12T15:15:23.941Z,16.13
2018-06-12T15:17:53.166Z,17.10
2018-06-12T15:20:22.376Z,17.30
2018-06-12T15:22:51.542Z,14.73
2018-06-12T15:25:20.720Z,14.70
2018-06-12T15:27:49.885Z,15.00
2018-06-12T15:30:19.040Z,14.93
2018-06-12T15:32:48.229Z,14.87
2018-06-12T15:35:17.397Z,15.30
2018-06-12T15:37:46.552Z,15.37
2018-06-12T15:40:15.847Z,14.93
2018-06-12T15:42:45.031Z,15.73
2018-06-12T15:45:14.232Z,17.23
2018-06-12T15:47:43.425Z,15.83
2018-06-12T15:50:12.619Z,15.37
2018-06-12T15:52:41.802Z,16.17
2018-06-12T15:55:11.022Z,15.50
2018-06-12T15:57:40.223Z,15.00
2018-06-12T16:00:09.451Z,14.83
2018-06-12T16:02:38.338Z,15.57
2018-06-12T16:05:07.393Z,14.27
2018-06-12T16:07:36.594Z,14.37
2018-06-12T16:10:05.801Z,14.33
2018-06-12T16:12:34.990Z,14.87
2018-06-12T16:15:04.364Z,13.77
2018-06-12T16:17:33.561Z,14.23
2018-06-12T16:20:02.913Z,14.97
2018-06-12T16:22:32.225Z,15.53
2018-06-12T16:25:01.600Z,14.30
2018-06-12T16:27:30.990Z,14.90
2018-06-12T16:30:00.376Z,13.27
2018-06-12T16:32:29.718Z,13.17
2018-06-12T16:34:59.088Z,12.57
2018-06-12T16:37:28.286Z,12.23
2018-06-12T16:39:57.641Z,12.27
2018-06-12T16:42:26.979Z,13.57
2018-06-12T16:44:56.236Z,11.97
2018-06-12T16:47:25.597Z,12.97
2018-06-12T16:49:55.033Z,13.97
2018-06-12T16:52:25.450Z,14.67
2018-06-12T16:54:54.820Z,14.07
2018-06-12T16:57:24.261Z,14.97
2018-06-12T16:59:53.575Z,14.23
2018-06-12T17:02:22.589Z,14.50
2018-06-12T17:04:51.902Z,15.57
2018-06-12T17:07:21.254Z,15.70
2018-06-12T17:09:50.428Z,13.30
2018-06-12T17:12:19.732Z,15.00
2018-06-12T17:14:48.992Z,15.37
2018-06-12T17:17:18.151Z,14.10
2018-06-12T17:19:47.367Z,13.40
2018-06-12T17:22:16.559Z,14.73
2018-06-12T17:24:45.716Z,13.67
2018-06-12T17:27:14.886Z,12.87
2018-06-12T17:29:44.173Z,11.60
2018-06-12T17:32:13.293Z,11.70
2018-06-12T17:34:42.530Z,13.13
2018-06-12T17:37:11.371Z,12.70
2018-06-12T17:39:40.406Z,15.43
2018-06-12T17:42:09.658Z,12.70
2018-06-12T17:44:38.750Z,13.07
2018-06-12T17:47:08.008Z,14.80
2018-06-12T17:49:37.241Z,14.03
2018-06-12T17:52:06.441Z,13.30
2018-06-12T17:54:35.581Z,12.10
2018-06-12T17:57:04.765Z,9.53
2018-06-12T17:59:33.977Z,12.10
2018-06-12T18:02:03.179Z,9.57
2018-06-12T18:04:32.353Z,9.87
2018-06-12T18:07:01.545Z,9.43
2018-06-12T18:09:30.743Z,10.40
2018-06-12T18:11:59.875Z,13.67
2018-06-12T18:14:29.267Z,6.63
2018-06-12T18:16:58.400Z,6.93
2018-06-12T18:19:27.624Z,7.67
2018-06-12T18:21:56.835Z,5.13
2018-06-12T18:24:26.062Z,5.40
2018-06-12T18:26:55.177Z,5.70
2018-06-12T18:29:24.333Z,4.47
2018-06-12T18:31:53.553Z,4.70
2018-06-12T18:34:22.773Z,6.60
2018-06-12T18:36:51.990Z,7.23
2018-06-12T18:39:21.575Z,15.97
2018-06-12T18:41:51.653Z,19.23
2018-06-12T18:44:21.002Z,19.27
2018-06-12T18:46:50.160Z,20.80
2018-06-12T18:49:19.362Z,22.40
2018-06-12T18:51:48.558Z,22.10
2018-06-12T18:54:17.727Z,21.50
2018-06-12T18:56:46.858Z,23.00
2018-06-12T18:59:16.025Z,23.60
2018-06-12T19:01:45.222Z,24.77
2018-06-12T19:04:14.470Z,24.27
2018-06-12T19:06:43.772Z,24.10
2018-06-12T19:09:12.844Z,25.67
2018-06-12T19:11:42.070Z,26.87
2018-06-12T19:14:11.255Z,25.87
2018-06-12T19:16:40.424Z,25.03
2018-06-12T19:19:09.626Z,23.93
2018-06-12T19:21:38.973Z,23.37
2018-06-12T19:24:08.113Z,21.37
2018-06-12T19:26:37.338Z,24.13
2018-06-12T19:29:06.624Z,23.20
2018-06-12T19:31:35.946Z,22.70
2018-06-12T19:34:05.326Z,22.57
2018-06-12T19:36:34.473Z,25.57
2018-06-12T19:39:04.091Z,23.47
2018-06-12T19:41:33.312Z,24.70
2018-06-12T19:44:02.566Z,25.57
2018-06-12T19:46:32.319Z,25.50
2018-06-12T19:49:01.521Z,28.43
2018-06-12T19:51:30.722Z,25.73
2018-06-12T19:53:59.940Z,22.20
2018-06-12T19:56:29.112Z,22.57
2018-06-12T19:58:58.276Z,21.67
2018-06-12T20:01:27.144Z,20.20
2018-06-12T20:03:56.277Z,23.07
2018-06-12T20:06:25.572Z,19.17
2018-06-12T20:08:55.116Z,19.13
2018-06-12T20:11:31.415Z,19.87
2018-06-12T20:14:00.602Z,18.83
2018-06-12T20:16:29.810Z,19.67
2018-06-12T20:18:59.273Z,20.13
2018-06-12T20:21:28.906Z,18.70
2018-06-12T20:23:59.055Z,19.80
2018-06-12T20:26:28.348Z,18.93
2018-06-12T20:28:57.567Z,20.13
2018-06-12T20:31:26.790Z,17.90
2018-06-12T20:33:56.288Z,16.77
2018-06-12T20:36:25.643Z,14.90
2018-06-12T20:38:54.949Z,16.83
2018-06-12T20:41:24.248Z,15.30
2018-06-12T20:43:53.553Z,14.83
2018-06-12T20:46:22.887Z,13.83
2018-06-12T20:48:52.244Z,15.33
2018-06-12T20:51:21.595Z,15.07
2018-06-12T20:53:50.983Z,16.83
2018-06-12T20:56:20.347Z,16.13
2018-06-12T20:58:50.025Z,16.20
2018-06-12T21:01:19.875Z,15.97
2018-06-12T21:03:49.263Z,17.17
2018-06-12T21:06:18.521Z,17.70
2018-06-12T21:08:47.718Z,16.37
2018-06-12T21:11:17.764Z,17.17
2018-06-12T21:13:47.040Z,18.03
2018-06-12T21:16:16.974Z,17.47
2018-06-12T21:18:46.338Z,17.00
2018-06-12T21:21:15.643Z,17.93
2018-06-12T21:23:44.803Z,18.07
2018-06-12T21:26:14.089Z,17.03
2018-06-12T21:28:43.292Z,16.33
2018-06-12T21:31:12.493Z,17.90
2018-06-12T21:33:41.686Z,17.83
2018-06-12T21:36:10.856Z,16.87
2018-06-12T21:38:40.049Z,17.83
2018-06-12T21:41:09.196Z,18.13
2018-06-12T21:43:38.385Z,17.10
2018-06-12T21:46:07.580Z,16.00
2018-06-12T21:48:36.718Z,16.73
2018-06-12T21:51:05.862Z,15.97
2018-06-12T21:53:35.682Z,14.73
2018-06-12T21:56:04.984Z,13.23
2018-06-12T21:58:34.212Z,13.27
2018-06-12T22:01:03.403Z,12.10
2018-06-12T22:03:32.693Z,12.03
2018-06-12T22:06:03.645Z,12.20
2018-06-12T22:08:32.763Z,11.80
2018-06-12T22:11:02.123Z,11.67
2018-06-12T22:13:31.317Z,12.60
2018-06-12T22:16:00.725Z,12.30
2018-06-12T22:18:29.838Z,12.60
2018-06-12T22:20:58.762Z,12.97
2018-06-12T22:23:28.097Z,12.83
2018-06-12T22:25:58.380Z,12.23
2018-06-12T22:28:28.031Z,12.83
2018-06-12T22:30:57.337Z,13.77
2018-06-12T22:33:26.709Z,12.50
2018-06-12T22:35:55.930Z,13.03
2018-06-12T22:38:27.656Z,12.87
2018-06-12T22:40:56.950Z,12.60
2018-06-12T22:43:26.170Z,11.43
2018-06-12T22:45:55.522Z,12.33
2018-06-12T22:48:24.717Z,12.27
2018-06-12T22:50:54.022Z,12.97
2018-06-12T22:53:23.277Z,12.57
2018-06-12T22:55:52.399Z,11.73
2018-06-12T22:58:21.596Z,12.13
2018-06-12T23:00:50.805Z,12.00
2018-06-12T23:03:20.064Z,12.23
2018-06-12T23:05:49.277Z,12.17
2018-06-12T23:08:18.463Z,12.13
2018-06-12T23:10:47.701Z,11.70
2018-06-12T23:13:17.914Z,12.77
2018-06-12T23:15:48.761Z,11.70
2018-06-12T23:18:18.710Z,11.93
2018-06-12T23:20:59.165Z,10.97
2018-06-12T23:23:28.698Z,10.60
2018-06-12T23:25:58.069Z,10.97
2018-06-12T23:28:27.244Z,11.00
2018-06-12T23:30:56.514Z,11.33
2018-06-12T23:33:26.669Z,11.13
2018-06-12T23:35:55.880Z,10.37
2018-06-12T23:38:25.046Z,10.10
2018-06-12T23:40:54.220Z,10.47
2018-06-12T23:43:23.325Z,10.50
2018-06-12T23:45:52.479Z,9.40
2018-06-12T23:48:21.597Z,9.90
2018-06-12T23:50:50.748Z,9.40
2018-06-12T23:53:19.930Z,9.37
2018-06-12T23:55:49.170Z,9.40
2018-06-12T23:58:18.285Z,9.00
